Carlos Rovirosa Perez International Airport


Codes: MMVA/VSA
Name: Carlos Rovirosa Perez International Airport
City: Villahermosa
Country: Mexico
Elevation: 46 ft.
Wikipedia:

Photos at Carlos Rovirosa Perez International Airport


   Photos courtesy of SpottingLog. You can add your own sightings and photos by signing up for a free trial today.



No photos found.

Weather at Carlos Rovirosa Perez International Airport


Time (UTC)DescriptionTempratureWindCloud coverageVisibilityPressureHumidity
18-Apr-2024 00:00Few Clouds37°C7 mph, NE16%10000m1007hPa38%
18-Apr-2024 03:00Clear Sky32°C11 mph, NE3%10000m1009hPa42%
18-Apr-2024 06:00Clear Sky27°C13 mph, E6%10000m1009hPa65%
18-Apr-2024 09:00Clear Sky27°C11 mph, E6%10000m1009hPa53%
18-Apr-2024 12:00Clear Sky25°C9 mph, E5%10000m1011hPa69%
18-Apr-2024 15:00Clear Sky31°C7 mph, SE2%10000m1012hPa47%
18-Apr-2024 18:00Clear Sky39°C4 mph, E1%10000m1009hPa28%
18-Apr-2024 21:00Clear Sky42°C9 mph, NE0%10000m1006hPa19%
19-Apr-2024 00:00Clear Sky33°C16 mph, N0%10000m1007hPa38%
19-Apr-2024 03:00Clear Sky27°C9 mph, NE0%10000m1009hPa55%
19-Apr-2024 06:00Clear Sky25°C7 mph, E0%10000m1010hPa67%
19-Apr-2024 09:00Clear Sky23°C0 mph, W0%10000m1009hPa87%
19-Apr-2024 12:00Clear Sky22°C2 mph, W0%10000m1011hPa86%
19-Apr-2024 15:00Clear Sky31°C2 mph, S1%10000m1013hPa49%
19-Apr-2024 18:00Clear Sky39°C2 mph, N3%10000m1010hPa28%
19-Apr-2024 21:00Clear Sky41°C9 mph, NE6%10000m1006hPa21%
20-Apr-2024 00:00Clear Sky33°C16 mph, N3%10000m1007hPa43%
20-Apr-2024 03:00Clear Sky27°C7 mph, NE0%10000m1010hPa66%
20-Apr-2024 06:00Clear Sky25°C4 mph, NE0%10000m1010hPa76%
20-Apr-2024 09:00Clear Sky25°C2 mph, SE1%10000m1010hPa83%
20-Apr-2024 12:00Clear Sky24°C2 mph, S0%10000m1011hPa83%
20-Apr-2024 15:00Clear Sky32°C2 mph, SW0%10000m1012hPa49%
20-Apr-2024 18:00Clear Sky40°C2 mph, N0%10000m1009hPa28%
20-Apr-2024 21:00Clear Sky42°C9 mph, NE0%10000m1005hPa21%
21-Apr-2024 00:00Clear Sky35°C13 mph, N0%10000m1005hPa40%
21-Apr-2024 03:00Clear Sky28°C7 mph, NE0%10000m1008hPa63%
21-Apr-2024 06:00Few Clouds27°C4 mph, NE21%10000m1009hPa73%
21-Apr-2024 09:00Broken Clouds26°C2 mph, W81%10000m1008hPa77%
21-Apr-2024 12:00Scattered Clouds25°C7 mph, SE42%10000m1009hPa77%
21-Apr-2024 15:00Clear Sky33°C7 mph, E0%10000m1010hPa47%
21-Apr-2024 18:00Clear Sky40°C7 mph, NE0%10000m1007hPa27%
21-Apr-2024 21:00Clear Sky43°C11 mph, NE0%10000m1003hPa20%
22-Apr-2024 00:00Clear Sky35°C16 mph, N2%10000m1004hPa42%
22-Apr-2024 03:00Broken Clouds30°C2 mph, W59%10000m1009hPa60%
22-Apr-2024 06:00Light Rain28°C7 mph, NW54%10000m1011hPa74%
22-Apr-2024 09:00Light Rain25°C4 mph, SW99%10000m1010hPa81%
22-Apr-2024 12:00Broken Clouds24°C2 mph, W74%10000m1011hPa83%
22-Apr-2024 15:00Clear Sky31°C7 mph, W5%10000m1013hPa57%
22-Apr-2024 18:00Few Clouds38°C11 mph, NW17%10000m1010hPa36%
22-Apr-2024 21:00Overcast Clouds34°C18 mph, NW93%10000m1009hPa43%